Time;durP1;ratioP1;P1;durP2;ratioP2;P2;SDS_P1;SDS_P2;PMS_P1;PMS_P2;Temp;Humidity;BMP_temperature;BMP_pressure;BME280_temperature;BME280_humidity;BME280_pressure;Samples;Min_cycle;Max_cycle;Signal;HPM_P1;HPM_P2
2022/03/27 00:00:52;;;;;;;;;;;;;;;31.47;16.62;101402.41;5018050;28;1943;-38
2022/03/27 00:03:18;;;;;;;;;;;;;;;31.23;16.61;101405.31;5018224;28;792;-38
2022/03/27 00:05:43;;;;;;;;;;;;;;;31.02;16.87;101398.00;5024419;28;1172;-39
2022/03/27 00:08:09;;;;;;;;;;;;;;;30.98;16.96;101389.41;5017842;28;806;-37
2022/03/27 00:11:23;;;;;;;;;;;;;;;31.02;17.03;101393.44;5025165;28;845;-39
2022/03/27 00:13:21;;;;;;;;;;;;;;;31.26;16.60;101391.31;5018305;28;1428;-39
2022/03/27 00:15:46;;;;;;;;;;;;;;;31.43;16.38;101382.91;5017399;28;826;-39
2022/03/27 00:18:11;;;;;;;;;;;;;;;31.62;16.38;101377.81;5017668;28;1442;-38
2022/03/27 00:20:37;;;;;;;;;;;;;;;31.71;16.23;101373.94;5017812;28;1911;-40
2022/03/27 00:23:02;;;;;;;;;;;;;;;31.73;16.04;101381.88;5017532;28;779;-39
2022/03/27 00:25:27;;;;;;;;;;;;;;;31.63;16.06;101368.66;5023649;28;941;-40
2022/03/27 00:27:52;;;;;;;;;;;;;;;30.54;17.15;101369.50;5018112;28;909;-38
2022/03/27 00:30:18;;;;;;;;;;;;;;;31.16;16.77;101374.53;5018012;28;785;-39
2022/03/27 00:32:43;;;;;;;;;;;;;;;31.36;16.40;101369.25;5017916;28;819;-37
2022/03/27 00:35:08;;;;;;;;;;;;;;;31.21;16.65;101366.63;5017588;28;825;-35
2022/03/27 00:37:34;;;;;;;;;;;;;;;31.11;16.75;101366.13;5019415;28;1128;-38
2022/03/27 00:39:59;;;;;;;;;;;;;;;31.08;17.01;101363.78;5018451;28;845;-37
2022/03/27 00:42:25;;;;;;;;;;;;;;;31.17;16.77;101357.19;5017598;28;1910;-39
2022/03/27 00:44:50;;;;;;;;;;;;;;;31.29;16.79;101360.22;5017605;28;876;-35
2022/03/27 00:47:15;;;;;;;;;;;;;;;31.45;16.44;101358.28;5017226;28;868;-40
2022/03/27 00:49:41;;;;;;;;;;;;;;;31.46;16.35;101357.22;5023018;28;771;-39
2022/03/27 00:52:06;;;;;;;;;;;;;;;31.59;16.24;101353.75;5017706;28;834;-39
2022/03/27 00:54:31;;;;;;;;;;;;;;;31.67;16.35;101350.88;5023235;28;813;-37
2022/03/27 00:56:57;;;;;;;;;;;;;;;31.74;16.17;101353.63;5017316;28;817;-38
2022/03/27 00:59:22;;;;;;;;;;;;;;;30.65;16.94;101352.69;5017167;28;877;-39
2022/03/27 01:01:47;;;;;;;;;;;;;;;31.01;16.93;101353.69;5019206;28;1957;-38
2022/03/27 01:04:12;;;;;;;;;;;;;;;31.42;16.50;101358.63;5022210;28;1068;-38
2022/03/27 01:06:39;;;;;;;;;;;;;;;31.21;16.59;101347.63;5017701;28;936;-38
2022/03/27 01:11:49;;;;;;;;;;;;;;;31.03;17.07;101350.81;5016924;28;640;-38
2022/03/27 01:14:17;;;;;;;;;;;;;;;31.10;16.92;101345.41;5018906;28;834;-40
2022/03/27 01:16:43;;;;;;;;;;;;;;;31.29;16.58;101346.63;5019164;28;766;-39
2022/03/27 01:19:10;;;;;;;;;;;;;;;31.43;16.48;101338.59;5016969;28;824;-39
2022/03/27 01:21:36;;;;;;;;;;;;;;;31.50;16.30;101336.75;5017202;28;1944;-39
2022/03/27 01:24:02;;;;;;;;;;;;;;;31.61;16.64;101340.81;5019061;28;944;-39
2022/03/27 01:26:27;;;;;;;;;;;;;;;31.72;16.16;101336.66;5016653;28;830;-37
2022/03/27 01:28:52;;;;;;;;;;;;;;;31.88;16.15;101344.50;5018575;28;903;-39
2022/03/27 01:31:18;;;;;;;;;;;;;;;31.09;16.67;101333.72;5016465;28;759;-38
2022/03/27 01:33:44;;;;;;;;;;;;;;;30.50;17.30;101332.88;5017312;28;774;-40
2022/03/27 01:36:09;;;;;;;;;;;;;;;31.50;16.30;101337.59;5016965;28;889;-37
2022/03/27 01:38:35;;;;;;;;;;;;;;;31.41;16.43;101341.50;5016225;28;1016;-40
2022/03/27 01:41:00;;;;;;;;;;;;;;;31.29;16.55;101343.91;5020240;28;1953;-38
2022/03/27 01:43:25;;;;;;;;;;;;;;;31.18;16.79;101339.81;5016863;28;820;-39
2022/03/27 01:45:50;;;;;;;;;;;;;;;31.11;16.85;101338.94;5016201;28;842;-37
2022/03/27 01:48:16;;;;;;;;;;;;;;;31.22;16.74;101349.28;5016554;28;951;-37
2022/03/27 01:50:41;;;;;;;;;;;;;;;31.38;16.37;101336.44;5016720;28;767;-37
2022/03/27 01:53:06;;;;;;;;;;;;;;;31.48;16.55;101333.41;5017546;28;1340;-38
2022/03/27 01:55:32;;;;;;;;;;;;;;;31.55;16.39;101333.44;5021545;28;825;-37
2022/03/27 01:57:57;;;;;;;;;;;;;;;31.68;16.04;101340.84;5016685;28;746;-37
2022/03/27 02:00:22;;;;;;;;;;;;;;;31.81;16.04;101335.47;5016112;28;1894;-37
2022/03/27 02:02:48;;;;;;;;;;;;;;;31.23;16.39;101331.94;5016880;28;818;-39
2022/03/27 02:05:13;;;;;;;;;;;;;;;30.55;17.18;101322.31;5023188;28;1084;-37
2022/03/27 02:07:42;;;;;;;;;;;;;;;31.42;16.71;101331.47;5018522;28;837;-38
2022/03/27 02:10:07;;;;;;;;;;;;;;;31.25;16.89;101329.84;5019648;28;878;-37
2022/03/27 02:12:35;;;;;;;;;;;;;;;31.14;16.77;101333.97;5016826;28;870;-38
2022/03/27 02:15:01;;;;;;;;;;;;;;;30.98;17.01;101332.34;5016214;28;854;-39
2022/03/27 02:17:27;;;;;;;;;;;;;;;31.01;17.04;101331.13;5015358;28;1331;-38
2022/03/27 02:19:52;;;;;;;;;;;;;;;31.06;16.95;101331.41;5016869;28;873;-39
2022/03/27 02:22:17;;;;;;;;;;;;;;;31.27;16.64;101332.38;5017637;28;1963;-35
2022/03/27 02:24:43;;;;;;;;;;;;;;;31.38;16.58;101333.72;5021448;28;876;-36
2022/03/27 02:27:08;;;;;;;;;;;;;;;31.51;16.51;101338.44;5020102;28;933;-37
2022/03/27 02:29:33;;;;;;;;;;;;;;;31.67;16.32;101331.84;5019871;28;850;-38
2022/03/27 02:31:58;;;;;;;;;;;;;;;31.83;16.24;101341.53;5023977;28;804;-35
2022/03/27 02:34:24;;;;;;;;;;;;;;;31.97;16.00;101336.19;5020273;28;869;-39
2022/03/27 02:36:49;;;;;;;;;;;;;;;30.83;16.69;101335.13;5019658;28;888;-35
2022/03/27 02:39:14;;;;;;;;;;;;;;;30.50;17.38;101333.75;5025553;28;1065;-38
2022/03/27 02:41:40;;;;;;;;;;;;;;;31.57;16.40;101337.63;5019394;28;1962;-39
2022/03/27 02:44:05;;;;;;;;;;;;;;;31.43;16.64;101333.16;5020194;28;881;-39
2022/03/27 02:46:30;;;;;;;;;;;;;;;31.36;16.49;101338.50;5019720;28;814;-36
2022/03/27 02:48:56;;;;;;;;;;;;;;;31.33;16.51;101344.34;5019874;28;865;-39
2022/03/27 02:51:21;;;;;;;;;;;;;;;31.44;16.66;101351.13;5019176;28;841;-38
2022/03/27 02:53:46;;;;;;;;;;;;;;;30.93;16.77;101351.09;5023125;28;865;-39
2022/03/27 02:56:11;;;;;;;;;;;;;;;30.42;17.03;101352.84;5022662;28;916;-40
2022/03/27 02:58:37;;;;;;;;;;;;;;;31.02;16.95;101354.53;5020521;28;848;-37
2022/03/27 03:01:02;;;;;;;;;;;;;;;31.06;16.97;101353.13;5018956;28;1898;-36
2022/03/27 03:03:28;;;;;;;;;;;;;;;30.89;17.08;101347.13;5020636;28;1092;-39
2022/03/27 03:05:54;;;;;;;;;;;;;;;30.79;17.35;101348.25;5021578;28;822;-37
2022/03/27 03:08:19;;;;;;;;;;;;;;;30.84;17.29;101350.41;5018038;28;865;-37
2022/03/27 03:10:45;;;;;;;;;;;;;;;31.08;17.09;101347.50;5030660;28;1638;-39
2022/03/27 03:13:10;;;;;;;;;;;;;;;31.31;16.84;101349.13;5038471;28;826;-37
2022/03/27 03:15:39;;;;;;;;;;;;;;;31.41;16.60;101346.94;5037990;28;1080;-38
2022/03/27 03:18:05;;;;;;;;;;;;;;;31.58;16.25;101346.66;5037675;28;1298;-40
2022/03/27 03:20:30;;;;;;;;;;;;;;;31.77;16.41;101351.34;5037810;28;1949;-34
2022/03/27 03:22:56;;;;;;;;;;;;;;;31.84;16.25;101356.84;5029175;28;839;-40
2022/03/27 03:25:21;;;;;;;;;;;;;;;31.64;16.13;101356.72;5019170;28;988;-37
2022/03/27 03:27:46;;;;;;;;;;;;;;;30.75;17.22;101362.38;5019080;28;841;-37
2022/03/27 03:30:12;;;;;;;;;;;;;;;30.96;17.36;101371.63;5018724;28;1070;-40
2022/03/27 03:32:37;;;;;;;;;;;;;;;32.19;16.12;101372.31;5018544;28;814;-37
2022/03/27 03:35:03;;;;;;;;;;;;;;;31.45;16.44;101367.25;5018182;28;996;-39
2022/03/27 03:37:29;;;;;;;;;;;;;;;30.60;17.09;101370.59;5037577;28;1137;-39
2022/03/27 03:39:54;;;;;;;;;;;;;;;30.31;17.10;101373.22;5030911;28;962;-35
2022/03/27 03:42:19;;;;;;;;;;;;;;;29.26;12.48;101366.63;5018632;28;1965;-33
2022/03/27 03:44:45;;;;;;;;;;;;;;;28.68;12.19;101367.03;5018483;28;1108;-34
2022/03/27 03:47:10;;;;;;;;;;;;;;;28.53;12.06;101369.66;5037112;28;1081;-34
2022/03/27 03:49:36;;;;;;;;;;;;;;;27.63;12.26;101371.44;5019160;28;904;-32
2022/03/27 03:52:01;;;;;;;;;;;;;;;27.13;13.21;101370.59;5018618;28;886;-31
2022/03/27 03:54:27;;;;;;;;;;;;;;;26.38;15.27;101368.56;5025406;28;1545;-32
2022/03/27 03:56:52;;;;;;;;;;;;;;;26.01;15.19;101367.00;5023668;28;877;-31
2022/03/27 03:59:18;;;;;;;;;;;;;;;25.39;15.27;101375.00;5024903;28;1422;-33
2022/03/27 04:01:43;;;;;;;;;;;;;;;24.98;14.73;101375.50;5035198;28;1906;-35
2022/03/27 04:04:09;;;;;;;;;;;;;;;25.16;14.65;101374.66;5029531;28;1147;-31
2022/03/27 04:06:34;;;;;;;;;;;;;;;24.83;14.62;101381.38;5018538;28;781;-33
2022/03/27 04:08:59;;;;;;;;;;;;;;;25.00;14.56;101370.81;5019661;28;901;-31
2022/03/27 04:11:25;;;;;;;;;;;;;;;25.53;14.11;101375.44;5022846;28;1585;-31
2022/03/27 04:13:50;;;;;;;;;;;;;;;26.43;13.45;101370.78;5036696;28;969;-35
2022/03/27 04:16:15;;;;;;;;;;;;;;;27.46;12.61;101380.59;5028133;28;916;-30
2022/03/27 04:18:41;;;;;;;;;;;;;;;27.46;12.73;101381.41;5033316;28;842;-33
2022/03/27 04:21:06;;;;;;;;;;;;;;;27.66;12.82;101385.63;5036533;28;1898;-34
2022/03/27 04:23:31;;;;;;;;;;;;;;;27.69;12.68;101385.31;5037504;28;1054;-32
2022/03/27 04:25:57;;;;;;;;;;;;;;;27.51;13.52;101380.88;5028739;28;931;-31
2022/03/27 04:28:22;;;;;;;;;;;;;;;27.73;13.19;101398.31;5018147;28;789;-33
2022/03/27 04:30:48;;;;;;;;;;;;;;;27.74;13.14;101393.75;5018121;28;778;-35
2022/03/27 04:33:13;;;;;;;;;;;;;;;27.63;13.70;101394.91;5017739;28;789;-32
2022/03/27 04:35:38;;;;;;;;;;;;;;;27.41;14.08;101391.06;5017484;28;1472;-35
2022/03/27 04:38:04;;;;;;;;;;;;;;;27.48;13.80;101394.75;5020018;28;1133;-36
2022/03/27 04:40:29;;;;;;;;;;;;;;;27.48;13.60;101400.16;5021927;28;1910;-35
2022/03/27 04:42:54;;;;;;;;;;;;;;;27.50;13.30;101403.53;5020996;28;1210;-34
2022/03/27 04:45:20;;;;;;;;;;;;;;;27.55;13.58;101398.47;5031691;28;1060;-31
2022/03/27 04:47:45;;;;;;;;;;;;;;;27.48;13.38;101403.72;5034601;28;1314;-33
2022/03/27 04:50:10;;;;;;;;;;;;;;;27.54;13.27;101398.63;5022023;28;774;-30
2022/03/27 04:52:36;;;;;;;;;;;;;;;27.25;13.26;101404.38;5023136;28;909;-36
2022/03/27 04:55:02;;;;;;;;;;;;;;;27.48;13.36;101397.44;5024125;28;888;-32
2022/03/27 04:57:33;;;;;;;;;;;;;;;27.53;13.72;101411.28;5024116;28;1326;-36
2022/03/27 04:59:59;;;;;;;;;;;;;;;27.50;13.86;101411.63;5017590;28;819;-34
2022/03/27 05:02:24;;;;;;;;;;;;;;;27.36;13.77;101418.59;5019571;28;1975;-33
2022/03/27 05:04:49;;;;;;;;;;;;;;;27.16;14.08;101418.88;5025556;28;889;-35
2022/03/27 05:07:15;;;;;;;;;;;;;;;27.34;13.96;101421.44;5017903;28;794;-33
2022/03/27 05:09:40;;;;;;;;;;;;;;;27.18;14.08;101416.00;5029456;28;1094;-36
2022/03/27 05:12:06;;;;;;;;;;;;;;;27.16;14.08;101429.69;5020326;28;857;-36
2022/03/27 05:14:31;;;;;;;;;;;;;;;27.33;14.18;101424.28;5029597;28;1087;-32
2022/03/27 05:16:56;;;;;;;;;;;;;;;27.56;13.91;101427.16;5032856;28;1258;-38
2022/03/27 05:19:22;;;;;;;;;;;;;;;27.39;14.17;101434.44;5033023;28;1306;-35
2022/03/27 05:21:47;;;;;;;;;;;;;;;27.69;13.66;101428.56;5034181;28;1902;-38
2022/03/27 05:24:13;;;;;;;;;;;;;;;27.63;14.33;101430.88;5021712;28;1210;-38
2022/03/27 05:26:38;;;;;;;;;;;;;;;27.61;13.95;101437.50;5035463;28;1126;-35
2022/03/27 05:29:05;;;;;;;;;;;;;;;27.34;14.55;101439.50;5030175;28;1258;-36
2022/03/27 05:31:30;;;;;;;;;;;;;;;27.49;14.44;101437.81;5016932;28;876;-38
2022/03/27 05:33:56;;;;;;;;;;;;;;;27.83;14.12;101445.94;5020207;28;1101;-40
2022/03/27 05:36:21;;;;;;;;;;;;;;;28.40;13.69;101448.69;5016965;28;874;-39
2022/03/27 05:38:47;;;;;;;;;;;;;;;28.63;13.36;101445.25;5018669;28;1236;-39
2022/03/27 05:41:12;;;;;;;;;;;;;;;28.93;13.32;101457.06;5016960;28;1899;-37
2022/03/27 05:43:37;;;;;;;;;;;;;;;29.04;13.24;101447.75;5021668;28;916;-41
2022/03/27 05:46:03;;;;;;;;;;;;;;;29.15;13.53;101438.34;5017052;28;898;-41
2022/03/27 05:48:28;;;;;;;;;;;;;;;29.33;13.33;101435.34;5016897;28;791;-41
2022/03/27 05:50:53;;;;;;;;;;;;;;;28.06;14.06;101432.53;5016812;28;763;-38
2022/03/27 05:53:18;;;;;;;;;;;;;;;27.36;14.68;101427.50;5017739;28;770;-39
2022/03/27 05:55:44;;;;;;;;;;;;;;;28.43;14.12;101423.97;5019169;28;1015;-38
2022/03/27 05:58:09;;;;;;;;;;;;;;;29.09;13.57;101430.94;5019498;28;757;-37
2022/03/27 06:00:34;;;;;;;;;;;;;;;29.45;13.63;101432.19;5025255;28;1963;-38
2022/03/27 06:03:00;;;;;;;;;;;;;;;29.88;13.33;101426.22;5023647;28;882;-40
2022/03/27 06:05:25;;;;;;;;;;;;;;;30.09;13.06;101432.78;5020940;28;1211;-39
2022/03/27 06:07:54;;;;;;;;;;;;;;;29.74;13.54;101430.63;5025065;28;830;-39
2022/03/27 06:10:23;;;;;;;;;;;;;;;28.98;14.17;101436.78;5027035;28;814;-34
2022/03/27 06:12:49;;;;;;;;;;;;;;;28.74;14.48;101436.72;5020053;28;834;-38
2022/03/27 06:15:14;;;;;;;;;;;;;;;28.05;14.56;101433.56;5024382;28;1131;-40
2022/03/27 06:17:40;;;;;;;;;;;;;;;28.73;14.31;101430.44;5020393;28;837;-39
2022/03/27 06:20:06;;;;;;;;;;;;;;;29.21;14.07;101443.03;5019359;28;1144;-41
2022/03/27 06:22:31;;;;;;;;;;;;;;;29.51;13.93;101431.44;5020499;28;1898;-38
2022/03/27 06:24:57;;;;;;;;;;;;;;;28.88;14.72;101436.97;5025608;28;1059;-39
2022/03/27 06:27:22;;;;;;;;;;;;;;;28.57;15.07;101428.69;5024131;28;834;-38
2022/03/27 06:29:47;;;;;;;;;;;;;;;28.44;15.00;101431.09;5020273;28;942;-39
2022/03/27 06:32:13;;;;;;;;;;;;;;;28.43;15.26;101442.94;5020406;28;828;-38
2022/03/27 06:34:38;;;;;;;;;;;;;;;29.02;14.73;101448.94;5023715;28;1042;-39
2022/03/27 06:37:03;;;;;;;;;;;;;;;29.07;14.51;101441.13;5020382;28;1013;-40
2022/03/27 06:39:29;;;;;;;;;;;;;;;28.55;14.90;101446.09;5022554;28;897;-40
2022/03/27 06:41:54;;;;;;;;;;;;;;;28.43;15.06;101445.63;5019823;28;1953;-38
2022/03/27 06:44:20;;;;;;;;;;;;;;;28.54;14.96;101444.44;5020452;28;780;-38
2022/03/27 06:46:45;;;;;;;;;;;;;;;29.14;14.56;101444.81;5020995;28;982;-41
2022/03/27 06:49:10;;;;;;;;;;;;;;;28.54;14.73;101450.69;5019767;28;810;-41
2022/03/27 06:51:36;;;;;;;;;;;;;;;28.33;14.71;101440.44;5020290;28;953;-37
2022/03/27 06:54:01;;;;;;;;;;;;;;;28.34;14.37;101444.84;5020303;28;881;-39
2022/03/27 06:56:27;;;;;;;;;;;;;;;28.23;14.44;101438.75;5019971;28;766;-39
2022/03/27 06:58:53;;;;;;;;;;;;;;;28.12;14.64;101444.53;5023449;28;833;-37
2022/03/27 07:04:02;;;;;;;;;;;;;;;29.07;14.49;101450.09;5024734;28;959;-37
2022/03/27 07:06:27;;;;;;;;;;;;;;;28.52;14.22;101436.47;5020871;28;935;-37
2022/03/27 07:08:52;;;;;;;;;;;;;;;28.37;14.53;101444.50;5023451;28;845;-38
2022/03/27 07:11:18;;;;;;;;;;;;;;;28.31;14.71;101443.28;5020638;28;912;-36
2022/03/27 07:13:43;;;;;;;;;;;;;;;28.65;14.40;101443.19;5019681;28;858;-36
2022/03/27 07:16:09;;;;;;;;;;;;;;;29.08;14.33;101449.06;5023482;28;821;-36
2022/03/27 07:18:34;;;;;;;;;;;;;;;29.06;14.05;101442.97;5019191;28;734;-34
2022/03/27 07:20:59;;;;;;;;;;;;;;;28.66;13.86;101451.13;5019863;28;1910;-38
2022/03/27 07:23:25;;;;;;;;;;;;;;;29.08;14.08;101454.47;5019442;28;874;-32
2022/03/27 07:25:52;;;;;;;;;;;;;;;29.31;13.32;101444.69;5022279;28;730;-36
2022/03/27 07:28:18;;;;;;;;;;;;;;;29.43;13.13;101440.50;5019542;28;822;-38
2022/03/27 07:30:45;;;;;;;;;;;;;;;29.58;12.81;101450.53;5019119;28;790;-34
2022/03/27 07:33:11;;;;;;;;;;;;;;;29.51;12.91;101461.25;5018682;28;812;-40
2022/03/27 07:35:36;;;;;;;;;;;;;;;28.29;13.37;101464.28;5022671;28;1108;-33
2022/03/27 07:38:02;;;;;;;;;;;;;;;27.33;14.09;101459.41;5034308;28;1278;-38
2022/03/27 07:40:30;;;;;;;;;;;;;;;27.04;14.21;101458.88;5036705;28;1887;-39
2022/03/27 07:42:56;;;;;;;;;;;;;;;28.11;13.79;101462.63;5024348;28;750;-36
2022/03/27 07:45:22;;;;;;;;;;;;;;;28.66;13.49;101455.72;5019736;28;894;-39
2022/03/27 07:47:50;;;;;;;;;;;;;;;28.94;12.89;101457.94;5018965;28;806;-38
2022/03/27 07:50:16;;;;;;;;;;;;;;;28.91;13.09;101452.88;5021614;28;1232;-39
2022/03/27 07:52:41;;;;;;;;;;;;;;;29.01;13.10;101444.56;5019186;28;776;-37
2022/03/27 07:55:07;;;;;;;;;;;;;;;28.94;12.95;101441.69;5023951;28;1047;-39
2022/03/27 07:57:33;;;;;;;;;;;;;;;27.71;14.01;101440.06;5018743;28;763;-39
2022/03/27 07:59:58;;;;;;;;;;;;;;;27.45;14.40;101436.47;5018578;28;968;-39
2022/03/27 08:02:24;;;;;;;;;;;;;;;27.11;14.44;101432.88;5024427;28;1890;-37
2022/03/27 08:04:49;;;;;;;;;;;;;;;27.12;14.62;101428.34;5023480;28;955;-35
2022/03/27 08:07:14;;;;;;;;;;;;;;;27.22;14.74;101420.94;5019195;28;802;-36
2022/03/27 08:09:40;;;;;;;;;;;;;;;27.19;14.57;101426.66;5023778;28;1024;-40
2022/03/27 08:12:07;;;;;;;;;;;;;;;27.50;14.58;101417.91;5030558;28;1159;-36
2022/03/27 08:14:33;;;;;;;;;;;;;;;28.58;13.76;101426.78;5022141;28;1131;-37
2022/03/27 08:16:58;;;;;;;;;;;;;;;29.23;13.05;101436.63;5022569;28;877;-40
2022/03/27 08:19:24;;;;;;;;;;;;;;;28.22;13.79;101428.09;5017398;28;847;-40
2022/03/27 08:21:49;;;;;;;;;;;;;;;27.78;14.45;101424.00;5018187;28;1898;-38
2022/03/27 08:24:14;;;;;;;;;;;;;;;27.68;14.69;101427.69;5020231;28;987;-38
2022/03/27 08:29:24;;;;;;;;;;;;;;;27.50;14.80;101417.03;5024069;28;870;-38
2022/03/27 08:31:50;;;;;;;;;;;;;;;27.67;15.36;101420.59;5017808;28;955;-39
2022/03/27 08:34:17;;;;;;;;;;;;;;;27.85;15.15;101422.28;5017991;28;827;-40
2022/03/27 08:36:43;;;;;;;;;;;;;;;27.68;15.10;101410.59;5020247;28;1168;-41
2022/03/27 08:39:08;;;;;;;;;;;;;;;27.86;14.87;101411.28;5023580;28;1241;-39
2022/03/27 08:41:34;;;;;;;;;;;;;;;28.53;14.18;101408.38;5020137;28;1953;-41
2022/03/27 08:43:59;;;;;;;;;;;;;;;28.87;13.94;101406.34;5018202;28;743;-36
2022/03/27 08:46:25;;;;;;;;;;;;;;;28.08;15.07;101405.31;5016104;28;842;-37
2022/03/27 08:48:51;;;;;;;;;;;;;;;28.13;14.66;101402.09;5017847;28;890;-39
2022/03/27 08:51:32;;;;;;;;;;;;;;;28.23;14.93;101400.88;5017784;28;873;-38
2022/03/27 08:54:05;;;;;;;;;;;;;;;27.84;15.22;101404.38;5027958;28;770;-36
2022/03/27 08:56:30;;;;;;;;;;;;;;;27.45;14.71;101398.66;5017069;28;818;-36
2022/03/27 08:58:56;;;;;;;;;;;;;;;27.51;15.19;101391.69;5017804;28;1536;-39
2022/03/27 09:01:22;;;;;;;;;;;;;;;27.58;15.38;101387.31;5021688;28;1901;-40
2022/03/27 09:03:47;;;;;;;;;;;;;;;27.94;14.58;101391.53;5020962;28;1097;-40
2022/03/27 09:06:13;;;;;;;;;;;;;;;28.18;14.87;101389.72;5020382;28;908;-40
2022/03/27 09:08:38;;;;;;;;;;;;;;;27.88;15.49;101381.38;5019397;28;932;-40
2022/03/27 09:11:04;;;;;;;;;;;;;;;27.83;15.86;101367.53;5019103;28;865;-40
2022/03/27 09:13:29;;;;;;;;;;;;;;;27.63;16.15;101374.13;5017501;28;917;-39
2022/03/27 09:16:01;;;;;;;;;;;;;;;27.84;15.21;101378.16;5016913;28;814;-39
2022/03/27 09:18:40;;;;;;;;;;;;;;;28.97;13.96;101373.63;5020800;28;743;-40
2022/03/27 09:21:05;;;;;;;;;;;;;;;27.97;16.39;101372.25;5015949;28;1998;-39
2022/03/27 09:23:31;;;;;;;;;;;;;;;28.45;14.58;101378.66;5017680;28;893;-41
2022/03/27 09:25:59;;;;;;;;;;;;;;;28.98;13.98;101377.19;5017861;28;833;-39
2022/03/27 09:28:31;;;;;;;;;;;;;;;29.16;14.42;101371.47;5017005;28;1493;-40
2022/03/27 09:30:57;;;;;;;;;;;;;;;28.40;15.74;101378.34;5021213;28;1180;-42
2022/03/27 09:33:32;;;;;;;;;;;;;;;28.07;16.35;101374.75;5024521;28;1097;-40
2022/03/27 09:36:10;;;;;;;;;;;;;;;27.82;16.54;101382.06;5031132;28;1207;-40
2022/03/27 09:38:36;;;;;;;;;;;;;;;27.69;16.73;101382.59;5018125;28;1004;-39
2022/03/27 09:41:01;;;;;;;;;;;;;;;27.19;16.16;101378.06;5021809;28;1956;-40
2022/03/27 09:43:27;;;;;;;;;;;;;;;27.07;16.90;101391.03;5023621;28;1139;-41
2022/03/27 09:45:59;;;;;;;;;;;;;;;27.05;17.30;101394.91;5023792;28;1082;-40
2022/03/27 09:48:25;;;;;;;;;;;;;;;27.06;17.42;101389.34;5033849;28;1275;-38
2022/03/27 09:50:54;;;;;;;;;;;;;;;27.23;17.32;101381.25;5033901;28;1203;-39
2022/03/27 09:53:29;;;;;;;;;;;;;;;27.16;16.86;101391.06;5032147;28;1761;-39
2022/03/27 09:56:01;;;;;;;;;;;;;;;27.68;16.32;101405.19;5017027;28;972;-41
2022/03/27 09:58:35;;;;;;;;;;;;;;;28.16;16.02;101407.16;5018413;28;905;-41
2022/03/27 10:01:11;;;;;;;;;;;;;;;27.63;16.72;101390.34;5019802;28;1933;-38
2022/03/27 10:03:37;;;;;;;;;;;;;;;27.60;16.66;101414.16;5027625;28;1178;-43
2022/03/27 10:06:02;;;;;;;;;;;;;;;28.09;16.67;101421.38;5021012;28;802;-38
2022/03/27 10:08:28;;;;;;;;;;;;;;;27.68;16.69;101416.00;5018788;28;904;-40
2022/03/27 10:10:53;;;;;;;;;;;;;;;27.54;17.35;101422.97;5023944;28;853;-40
2022/03/27 10:13:19;;;;;;;;;;;;;;;27.46;17.15;101421.94;5015256;28;898;-41
2022/03/27 10:15:44;;;;;;;;;;;;;;;27.98;16.25;101419.88;5017982;28;1635;-41
2022/03/27 10:18:10;;;;;;;;;;;;;;;28.28;16.55;101418.47;5019774;28;825;-42
2022/03/27 10:20:36;;;;;;;;;;;;;;;27.81;16.87;101416.34;5028626;28;1952;-40
2022/03/27 10:23:01;;;;;;;;;;;;;;;27.65;17.41;101416.34;5018277;28;770;-36
2022/03/27 10:25:29;;;;;;;;;;;;;;;27.72;17.28;101439.88;5029520;28;1278;-41
2022/03/27 10:27:54;;;;;;;;;;;;;;;27.60;17.31;101438.50;5016671;28;762;-42
2022/03/27 10:30:19;;;;;;;;;;;;;;;28.05;16.08;101457.03;5016449;28;878;-40
2022/03/27 10:32:44;;;;;;;;;;;;;;;28.50;15.86;101457.47;5026567;28;1140;-39
2022/03/27 10:35:14;;;;;;;;;;;;;;;28.70;15.50;101452.47;5026252;28;738;-39
2022/03/27 10:38:04;;;;;;;;;;;;;;;29.03;15.02;101456.06;5016264;28;1093;-41
2022/03/27 10:40:33;;;;;;;;;;;;;;;28.03;15.94;101462.63;5020780;28;889;-41
2022/03/27 10:43:19;;;;;;;;;;;;;;;27.79;16.01;101468.94;5017639;28;1967;-36
2022/03/27 10:45:45;;;;;;;;;;;;;;;27.71;15.95;101475.19;5033305;28;924;-41
2022/03/27 10:48:11;;;;;;;;;;;;;;;27.40;16.35;101473.94;5034466;28;992;-40
2022/03/27 10:50:46;;;;;;;;;;;;;;;27.45;16.08;101479.69;5026380;28;778;-40
2022/03/27 10:53:11;;;;;;;;;;;;;;;27.44;16.60;101487.97;5023843;28;1101;-40
2022/03/27 10:55:42;;;;;;;;;;;;;;;27.34;17.21;101482.72;5035790;28;1255;-35
2022/03/27 10:58:25;;;;;;;;;;;;;;;27.85;16.52;101471.78;5020030;28;840;-41
2022/03/27 11:00:50;;;;;;;;;;;;;;;28.38;15.73;101494.03;5023718;28;1902;-40
2022/03/27 11:03:35;;;;;;;;;;;;;;;28.73;15.33;101495.44;5018714;28;830;-41
2022/03/27 11:06:00;;;;;;;;;;;;;;;29.07;15.29;101492.59;5020017;28;854;-39
2022/03/27 11:08:26;;;;;;;;;;;;;;;29.31;14.96;101501.59;5019372;28;896;-42
2022/03/27 11:10:55;;;;;;;;;;;;;;;27.94;16.38;101491.56;5031328;28;1144;-41
2022/03/27 11:13:36;;;;;;;;;;;;;;;28.02;16.63;101485.28;5033033;28;1140;-41
2022/03/27 11:16:02;;;;;;;;;;;;;;;28.88;15.79;101502.78;5032280;28;822;-40
2022/03/27 11:18:38;;;;;;;;;;;;;;;29.10;15.52;101492.22;5038709;28;1375;-40
2022/03/27 11:21:03;;;;;;;;;;;;;;;29.34;15.15;101490.38;5029584;28;1947;-36
2022/03/27 11:23:29;;;;;;;;;;;;;;;29.17;15.45;101487.78;5038192;28;825;-38
2022/03/27 11:25:55;;;;;;;;;;;;;;;27.95;16.03;101498.66;5038043;28;762;-40
2022/03/27 11:28:21;;;;;;;;;;;;;;;27.69;16.07;101504.25;5030121;28;1182;-40
2022/03/27 11:30:54;;;;;;;;;;;;;;;27.39;16.09;101493.88;5023073;28;1426;-37
2022/03/27 11:33:26;;;;;;;;;;;;;;;27.43;16.39;101511.44;5024930;28;818;-35
2022/03/27 11:36:00;;;;;;;;;;;;;;;27.61;16.32;101513.16;5020112;28;826;-38
2022/03/27 11:38:26;;;;;;;;;;;;;;;27.61;16.29;101507.75;5018998;28;1074;-39
2022/03/27 11:40:55;;;;;;;;;;;;;;;27.99;16.26;101510.81;5027558;28;1953;-34
2022/03/27 11:43:33;;;;;;;;;;;;;;;28.32;16.35;101520.75;5037557;28;877;-41
2022/03/27 11:45:58;;;;;;;;;;;;;;;28.66;15.79;101517.97;5037727;28;931;-39
2022/03/27 11:48:23;;;;;;;;;;;;;;;28.47;16.24;101512.78;5035718;28;1379;-37
2022/03/27 11:50:49;;;;;;;;;;;;;;;28.23;16.12;101516.34;5029079;28;829;-40
2022/03/27 11:53:14;;;;;;;;;;;;;;;29.08;15.67;101534.88;5035007;28;892;-39
2022/03/27 11:55:40;;;;;;;;;;;;;;;28.87;15.93;101525.50;5021018;28;1035;-41
2022/03/27 11:58:07;;;;;;;;;;;;;;;28.74;15.93;101528.78;5018769;28;848;-40
2022/03/27 12:00:37;;;;;;;;;;;;;;;28.24;16.10;101527.00;5022877;28;750;-40
2022/03/27 12:03:03;;;;;;;;;;;;;;;28.02;16.61;101536.69;5022526;28;1970;-37
2022/03/27 12:05:35;;;;;;;;;;;;;;;28.44;16.54;101526.66;5019985;28;1166;-39
2022/03/27 12:08:00;;;;;;;;;;;;;;;29.12;15.62;101535.38;5018740;28;808;-38
2022/03/27 12:10:26;;;;;;;;;;;;;;;28.55;15.88;101535.41;5018959;28;980;-38
2022/03/27 12:13:04;;;;;;;;;;;;;;;28.15;16.03;101525.34;5018237;28;916;-39
2022/03/27 12:15:39;;;;;;;;;;;;;;;27.95;15.77;101536.50;5018286;28;806;-39
2022/03/27 12:18:04;;;;;;;;;;;;;;;28.81;15.75;101545.97;5019864;28;997;-40
2022/03/27 12:20:39;;;;;;;;;;;;;;;29.20;15.31;101557.00;5018286;28;794;-39
2022/03/27 12:23:04;;;;;;;;;;;;;;;28.24;15.38;101537.81;5018056;28;826;-39
2022/03/27 12:25:30;;;;;;;;;;;;;;;28.03;16.04;101529.41;5022279;28;1333;-40
2022/03/27 12:30:42;;;;;;;;;;;;;;;28.76;15.32;101561.09;5024067;28;766;-39
2022/03/27 12:33:08;;;;;;;;;;;;;;;27.98;15.48;101576.72;5037408;28;738;-39
2022/03/27 12:35:33;;;;;;;;;;;;;;;26.76;15.21;101561.66;5037007;28;885;-40
2022/03/27 12:37:58;;;;;;;;;;;;;;;26.47;15.27;101549.34;5024070;28;1215;-37
2022/03/27 12:40:25;;;;;;;;;;;;;;;26.81;15.42;101555.78;5031077;28;1079;-37
2022/03/27 12:42:51;;;;;;;;;;;;;;;27.91;15.10;101570.28;5034604;28;1973;-37
2022/03/27 12:45:17;;;;;;;;;;;;;;;28.08;15.26;101575.69;5018629;28;814;-40
2022/03/27 12:47:46;;;;;;;;;;;;;;;28.50;14.75;101573.84;5017915;28;748;-42
2022/03/27 12:50:13;;;;;;;;;;;;;;;28.74;14.92;101574.78;5017894;28;758;-38
2022/03/27 12:52:45;;;;;;;;;;;;;;;27.97;15.11;101569.66;5021032;28;1069;-40
2022/03/27 12:55:11;;;;;;;;;;;;;;;27.85;14.73;101549.34;5034690;28;1025;-40
2022/03/27 12:57:50;;;;;;;;;;;;;;;27.43;16.14;101570.03;5018565;28;839;-39
2022/03/27 13:00:16;;;;;;;;;;;;;;;28.47;15.52;101566.91;5030371;28;842;-35